sensor_id;sensor_type;location;lat;lon;timestamp;P1;durP1;ratioP1;P2;durP2;ratioP2
49031;SDS011;63443;48.366;10.876;2022-11-15T02:54:57;11.70;;;10.50;;
49031;SDS011;63443;48.366;10.876;2022-11-15T03:00:33;14.55;;;9.95;;
49031;SDS011;63443;48.366;10.876;2022-11-15T10:07:13;5.03;;;4.40;;
49031;SDS011;63443;48.366;10.876;2022-11-15T10:40:17;2.63;;;2.37;;
49031;SDS011;63443;48.366;10.876;2022-11-15T10:42:43;3.60;;;3.28;;
49031;SDS011;63443;48.366;10.876;2022-11-15T10:47:48;3.15;;;2.85;;
49031;SDS011;63443;48.366;10.876;2022-11-15T10:50:30;7.10;;;3.83;;
49031;SDS011;63443;48.366;10.876;2022-11-15T10:52:57;4.32;;;3.60;;
49031;SDS011;63443;48.366;10.876;2022-11-15T10:57:54;4.13;;;3.80;;
49031;SDS011;63443;48.366;10.876;2022-11-15T11:17:51;3.53;;;3.10;;
49031;SDS011;63443;48.366;10.876;2022-11-15T14:15:31;6.32;;;3.80;;
49031;SDS011;63443;48.366;10.876;2022-11-15T14:18:02;4.20;;;3.92;;
49031;SDS011;63443;48.366;10.876;2022-11-15T14:20:32;7.82;;;6.47;;
49031;SDS011;63443;48.366;10.876;2022-11-15T14:23:00;7.50;;;6.10;;
49031;SDS011;63443;48.366;10.876;2022-11-15T14:25:34;6.00;;;5.40;;
49031;SDS011;63443;48.366;10.876;2022-11-15T14:30:47;5.75;;;5.22;;
49031;SDS011;63443;48.366;10.876;2022-11-15T14:35:46;6.50;;;5.43;;
49031;SDS011;63443;48.366;10.876;2022-11-15T15:41:20;13.82;;;9.63;;
49031;SDS011;63443;48.366;10.876;2022-11-15T15:43:46;10.27;;;8.55;;
49031;SDS011;63443;48.366;10.876;2022-11-15T15:53:33;64.28;;;44.30;;
49031;SDS011;63443;48.366;10.876;2022-11-15T15:55:59;44.20;;;32.50;;
49031;SDS011;63443;48.366;10.876;2022-11-15T15:58:24;30.45;;;24.20;;
49031;SDS011;63443;48.366;10.876;2022-11-15T16:00:50;22.45;;;18.52;;
49031;SDS011;63443;48.366;10.876;2022-11-15T16:03:15;14.05;;;10.88;;
49031;SDS011;63443;48.366;10.876;2022-11-15T16:05:41;23.08;;;19.13;;
49031;SDS011;63443;48.366;10.876;2022-11-15T16:08:22;18.35;;;12.10;;
49031;SDS011;63443;48.366;10.876;2022-11-15T16:10:49;13.85;;;11.85;;
49031;SDS011;63443;48.366;10.876;2022-11-15T16:13:15;14.07;;;11.38;;
49031;SDS011;63443;48.366;10.876;2022-11-15T16:15:41;15.68;;;10.40;;
49031;SDS011;63443;48.366;10.876;2022-11-15T16:18:26;13.13;;;10.40;;
49031;SDS011;63443;48.366;10.876;2022-11-15T16:20:51;8.88;;;7.97;;
49031;SDS011;63443;48.366;10.876;2022-11-15T16:23:21;16.48;;;12.52;;
49031;SDS011;63443;48.366;10.876;2022-11-15T16:31:04;10.95;;;8.38;;
49031;SDS011;63443;48.366;10.876;2022-11-15T16:33:34;15.80;;;9.70;;
49031;SDS011;63443;48.366;10.876;2022-11-15T16:36:01;11.82;;;10.38;;
49031;SDS011;63443;48.366;10.876;2022-11-15T16:38:27;20.50;;;12.05;;
49031;SDS011;63443;48.366;10.876;2022-11-15T16:40:53;22.55;;;10.88;;
49031;SDS011;63443;48.366;10.876;2022-11-15T16:43:18;11.45;;;10.15;;
49031;SDS011;63443;48.366;10.876;2022-11-15T16:45:44;15.25;;;10.32;;
49031;SDS011;63443;48.366;10.876;2022-11-15T16:48:18;12.93;;;10.57;;
49031;SDS011;63443;48.366;10.876;2022-11-15T16:50:49;13.55;;;11.07;;
49031;SDS011;63443;48.366;10.876;2022-11-15T16:53:15;16.17;;;12.60;;
49031;SDS011;63443;48.366;10.876;2022-11-15T16:55:41;12.00;;;10.80;;
49031;SDS011;63443;48.366;10.876;2022-11-15T16:58:07;11.80;;;10.30;;
49031;SDS011;63443;48.366;10.876;2022-11-15T17:00:34;11.32;;;9.93;;
49031;SDS011;63443;48.366;10.876;2022-11-15T17:03:00;12.98;;;10.40;;
49031;SDS011;63443;48.366;10.876;2022-11-15T17:05:27;15.18;;;11.10;;
49031;SDS011;63443;48.366;10.876;2022-11-15T17:07:53;13.10;;;10.32;;
49031;SDS011;63443;48.366;10.876;2022-11-15T17:10:23;14.73;;;9.77;;
49031;SDS011;63443;48.366;10.876;2022-11-15T17:12:50;42.55;;;21.10;;
49031;SDS011;63443;48.366;10.876;2022-11-15T17:15:16;25.75;;;17.48;;
49031;SDS011;63443;48.366;10.876;2022-11-15T17:17:42;14.15;;;12.57;;
49031;SDS011;63443;48.366;10.876;2022-11-15T17:20:14;12.10;;;10.55;;
49031;SDS011;63443;48.366;10.876;2022-11-15T17:22:40;11.93;;;10.60;;
49031;SDS011;63443;48.366;10.876;2022-11-15T17:25:06;19.77;;;13.55;;
49031;SDS011;63443;48.366;10.876;2022-11-15T17:27:32;22.65;;;17.98;;
49031;SDS011;63443;48.366;10.876;2022-11-15T17:29:58;46.38;;;23.40;;
49031;SDS011;63443;48.366;10.876;2022-11-15T17:32:23;38.55;;;24.25;;
49031;SDS011;63443;48.366;10.876;2022-11-15T17:34:49;36.72;;;18.80;;
49031;SDS011;63443;48.366;10.876;2022-11-15T17:37:14;35.55;;;20.85;;
49031;SDS011;63443;48.366;10.876;2022-11-15T17:39:40;30.02;;;21.85;;
49031;SDS011;63443;48.366;10.876;2022-11-15T17:42:05;34.17;;;23.92;;
49031;SDS011;63443;48.366;10.876;2022-11-15T17:44:31;33.08;;;25.63;;
49031;SDS011;63443;48.366;10.876;2022-11-15T17:46:57;38.53;;;27.77;;
49031;SDS011;63443;48.366;10.876;2022-11-15T17:49:23;34.67;;;22.60;;
49031;SDS011;63443;48.366;10.876;2022-11-15T17:51:48;36.25;;;25.95;;
49031;SDS011;63443;48.366;10.876;2022-11-15T17:54:14;44.30;;;26.40;;
49031;SDS011;63443;48.366;10.876;2022-11-15T17:56:40;51.53;;;27.83;;
49031;SDS011;63443;48.366;10.876;2022-11-15T17:59:06;36.28;;;23.92;;
49031;SDS011;63443;48.366;10.876;2022-11-15T18:01:32;29.77;;;18.42;;
49031;SDS011;63443;48.366;10.876;2022-11-15T18:04:00;25.88;;;17.40;;
49031;SDS011;63443;48.366;10.876;2022-11-15T18:06:28;24.92;;;17.27;;
49031;SDS011;63443;48.366;10.876;2022-11-15T18:08:55;20.17;;;13.98;;
49031;SDS011;63443;48.366;10.876;2022-11-15T18:11:25;28.63;;;19.02;;
49031;SDS011;63443;48.366;10.876;2022-11-15T18:13:54;36.65;;;19.73;;
49031;SDS011;63443;48.366;10.876;2022-11-15T18:16:22;28.63;;;16.92;;
49031;SDS011;63443;48.366;10.876;2022-11-15T18:18:50;17.95;;;13.35;;
49031;SDS011;63443;48.366;10.876;2022-11-15T18:21:37;37.92;;;21.83;;
49031;SDS011;63443;48.366;10.876;2022-11-15T18:24:20;22.85;;;16.17;;
49031;SDS011;63443;48.366;10.876;2022-11-15T18:26:47;24.15;;;15.93;;
49031;SDS011;63443;48.366;10.876;2022-11-15T18:29:12;22.77;;;16.00;;
49031;SDS011;63443;48.366;10.876;2022-11-15T18:31:38;61.55;;;30.42;;
49031;SDS011;63443;48.366;10.876;2022-11-15T18:34:03;40.15;;;22.38;;
49031;SDS011;63443;48.366;10.876;2022-11-15T18:36:29;35.58;;;21.17;;
49031;SDS011;63443;48.366;10.876;2022-11-15T18:38:56;36.17;;;21.65;;
49031;SDS011;63443;48.366;10.876;2022-11-15T18:41:23;57.63;;;37.90;;
49031;SDS011;63443;48.366;10.876;2022-11-15T18:43:53;25.52;;;18.92;;
49031;SDS011;63443;48.366;10.876;2022-11-15T18:46:19;28.13;;;18.80;;
49031;SDS011;63443;48.366;10.876;2022-11-15T18:48:48;28.77;;;19.60;;
49031;SDS011;63443;48.366;10.876;2022-11-15T18:51:16;26.83;;;18.30;;
49031;SDS011;63443;48.366;10.876;2022-11-15T18:53:44;16.88;;;13.13;;
49031;SDS011;63443;48.366;10.876;2022-11-15T18:56:11;21.90;;;13.18;;
49031;SDS011;63443;48.366;10.876;2022-11-15T18:58:37;15.82;;;12.68;;
49031;SDS011;63443;48.366;10.876;2022-11-15T19:01:06;18.45;;;14.63;;
49031;SDS011;63443;48.366;10.876;2022-11-15T19:03:35;15.13;;;12.65;;
49031;SDS011;63443;48.366;10.876;2022-11-15T19:06:02;13.15;;;11.23;;
49031;SDS011;63443;48.366;10.876;2022-11-15T19:08:29;13.95;;;10.07;;
49031;SDS011;63443;48.366;10.876;2022-11-15T19:10:55;12.25;;;9.80;;
49031;SDS011;63443;48.366;10.876;2022-11-15T19:13:21;14.90;;;11.23;;
49031;SDS011;63443;48.366;10.876;2022-11-15T19:15:46;15.50;;;11.38;;
49031;SDS011;63443;48.366;10.876;2022-11-15T19:18:13;17.38;;;12.35;;
49031;SDS011;63443;48.366;10.876;2022-11-15T19:20:38;12.20;;;10.77;;
49031;SDS011;63443;48.366;10.876;2022-11-15T19:23:04;14.68;;;13.18;;
49031;SDS011;63443;48.366;10.876;2022-11-15T19:25:29;16.92;;;11.98;;
49031;SDS011;63443;48.366;10.876;2022-11-15T19:27:55;14.73;;;11.45;;
49031;SDS011;63443;48.366;10.876;2022-11-15T19:30:20;14.45;;;10.93;;
49031;SDS011;63443;48.366;10.876;2022-11-15T19:32:46;14.57;;;11.73;;
49031;SDS011;63443;48.366;10.876;2022-11-15T19:35:12;12.80;;;10.77;;
49031;SDS011;63443;48.366;10.876;2022-11-15T19:37:37;14.13;;;11.45;;
49031;SDS011;63443;48.366;10.876;2022-11-15T19:40:03;12.93;;;9.80;;
49031;SDS011;63443;48.366;10.876;2022-11-15T19:42:29;12.82;;;10.90;;
49031;SDS011;63443;48.366;10.876;2022-11-15T19:44:55;14.93;;;12.85;;
49031;SDS011;63443;48.366;10.876;2022-11-15T19:47:20;20.73;;;17.42;;
49031;SDS011;63443;48.366;10.876;2022-11-15T19:49:46;22.90;;;18.65;;
49031;SDS011;63443;48.366;10.876;2022-11-15T19:52:12;35.83;;;21.13;;
49031;SDS011;63443;48.366;10.876;2022-11-15T19:54:37;21.85;;;16.92;;
49031;SDS011;63443;48.366;10.876;2022-11-15T19:57:03;18.58;;;16.67;;
49031;SDS011;63443;48.366;10.876;2022-11-15T19:59:28;24.90;;;18.92;;
49031;SDS011;63443;48.366;10.876;2022-11-15T20:01:54;17.40;;;13.65;;
49031;SDS011;63443;48.366;10.876;2022-11-15T20:04:19;21.15;;;18.92;;
49031;SDS011;63443;48.366;10.876;2022-11-15T20:06:46;39.40;;;30.48;;
49031;SDS011;63443;48.366;10.876;2022-11-15T20:09:12;27.20;;;21.08;;
49031;SDS011;63443;48.366;10.876;2022-11-15T20:11:39;19.17;;;14.98;;
49031;SDS011;63443;48.366;10.876;2022-11-15T20:14:05;17.02;;;14.15;;
49031;SDS011;63443;48.366;10.876;2022-11-15T20:16:32;24.60;;;18.08;;
49031;SDS011;63443;48.366;10.876;2022-11-15T20:18:58;23.70;;;17.52;;
49031;SDS011;63443;48.366;10.876;2022-11-15T20:21:24;23.40;;;18.27;;
49031;SDS011;63443;48.366;10.876;2022-11-15T20:23:50;23.65;;;19.85;;
49031;SDS011;63443;48.366;10.876;2022-11-15T20:26:15;22.80;;;17.52;;
49031;SDS011;63443;48.366;10.876;2022-11-15T20:28:42;21.50;;;17.17;;
49031;SDS011;63443;48.366;10.876;2022-11-15T20:31:08;18.98;;;16.67;;
49031;SDS011;63443;48.366;10.876;2022-11-15T20:33:35;18.95;;;13.98;;
49031;SDS011;63443;48.366;10.876;2022-11-15T20:36:04;21.92;;;15.90;;
49031;SDS011;63443;48.366;10.876;2022-11-15T20:38:37;52.40;;;34.15;;
49031;SDS011;63443;48.366;10.876;2022-11-15T20:41:03;40.72;;;29.02;;
49031;SDS011;63443;48.366;10.876;2022-11-15T20:43:29;30.15;;;22.75;;
49031;SDS011;63443;48.366;10.876;2022-11-15T20:45:54;22.95;;;19.20;;
49031;SDS011;63443;48.366;10.876;2022-11-15T20:48:20;18.85;;;16.10;;
49031;SDS011;63443;48.366;10.876;2022-11-15T20:50:46;13.48;;;11.40;;
49031;SDS011;63443;48.366;10.876;2022-11-15T20:53:14;13.23;;;10.85;;
49031;SDS011;63443;48.366;10.876;2022-11-15T20:55:43;12.73;;;11.40;;
49031;SDS011;63443;48.366;10.876;2022-11-15T20:58:15;13.85;;;10.70;;
49031;SDS011;63443;48.366;10.876;2022-11-15T21:00:41;13.90;;;12.18;;
49031;SDS011;63443;48.366;10.876;2022-11-15T21:03:08;11.02;;;9.93;;
49031;SDS011;63443;48.366;10.876;2022-11-15T21:05:38;13.65;;;9.27;;
49031;SDS011;63443;48.366;10.876;2022-11-15T21:08:06;18.63;;;11.95;;
49031;SDS011;63443;48.366;10.876;2022-11-15T21:10:32;11.88;;;10.60;;
49031;SDS011;63443;48.366;10.876;2022-11-15T21:13:16;12.75;;;10.20;;
49031;SDS011;63443;48.366;10.876;2022-11-15T21:15:42;12.30;;;10.43;;
49031;SDS011;63443;48.366;10.876;2022-11-15T21:18:08;14.50;;;10.90;;
49031;SDS011;63443;48.366;10.876;2022-11-15T21:20:33;13.70;;;11.18;;
49031;SDS011;63443;48.366;10.876;2022-11-15T21:22:59;14.13;;;10.15;;
49031;SDS011;63443;48.366;10.876;2022-11-15T21:25:25;15.35;;;11.30;;
49031;SDS011;63443;48.366;10.876;2022-11-15T21:27:51;15.55;;;13.00;;
49031;SDS011;63443;48.366;10.876;2022-11-15T21:30:16;12.13;;;9.75;;
49031;SDS011;63443;48.366;10.876;2022-11-15T21:32:43;13.57;;;10.90;;
49031;SDS011;63443;48.366;10.876;2022-11-15T21:35:09;12.18;;;10.35;;
49031;SDS011;63443;48.366;10.876;2022-11-15T21:37:35;13.98;;;11.18;;
49031;SDS011;63443;48.366;10.876;2022-11-15T21:40:00;30.63;;;21.88;;
49031;SDS011;63443;48.366;10.876;2022-11-15T21:42:26;20.15;;;17.17;;
49031;SDS011;63443;48.366;10.876;2022-11-15T21:44:51;31.92;;;27.23;;
49031;SDS011;63443;48.366;10.876;2022-11-15T21:47:17;25.75;;;20.75;;
49031;SDS011;63443;48.366;10.876;2022-11-15T21:49:42;23.67;;;20.77;;
49031;SDS011;63443;48.366;10.876;2022-11-15T21:52:08;22.48;;;17.65;;
49031;SDS011;63443;48.366;10.876;2022-11-15T21:54:34;18.98;;;14.48;;
49031;SDS011;63443;48.366;10.876;2022-11-15T21:56:59;19.42;;;15.50;;
49031;SDS011;63443;48.366;10.876;2022-11-15T21:59:25;20.33;;;13.73;;
49031;SDS011;63443;48.366;10.876;2022-11-15T22:01:50;25.00;;;22.15;;
49031;SDS011;63443;48.366;10.876;2022-11-15T22:04:35;14.15;;;12.50;;
49031;SDS011;63443;48.366;10.876;2022-11-15T22:09:26;21.90;;;17.73;;
49031;SDS011;63443;48.366;10.876;2022-11-15T22:11:51;22.30;;;17.83;;
49031;SDS011;63443;48.366;10.876;2022-11-15T22:14:17;17.05;;;15.40;;
49031;SDS011;63443;48.366;10.876;2022-11-15T22:16:42;16.60;;;14.88;;
49031;SDS011;63443;48.366;10.876;2022-11-15T22:19:08;20.25;;;17.67;;
49031;SDS011;63443;48.366;10.876;2022-11-15T22:21:33;21.83;;;19.53;;
49031;SDS011;63443;48.366;10.876;2022-11-15T22:23:59;22.90;;;20.50;;
49031;SDS011;63443;48.366;10.876;2022-11-15T22:26:25;27.00;;;23.60;;
49031;SDS011;63443;48.366;10.876;2022-11-15T22:28:50;19.80;;;17.80;;
49031;SDS011;63443;48.366;10.876;2022-11-15T22:31:16;25.38;;;22.80;;
49031;SDS011;63443;48.366;10.876;2022-11-15T22:33:42;22.52;;;20.50;;
49031;SDS011;63443;48.366;10.876;2022-11-15T22:36:09;20.97;;;18.80;;
49031;SDS011;63443;48.366;10.876;2022-11-15T22:38:35;14.73;;;13.32;;
49031;SDS011;63443;48.366;10.876;2022-11-15T22:41:01;13.23;;;11.87;;
49031;SDS011;63443;48.366;10.876;2022-11-15T22:43:26;11.37;;;10.27;;
49031;SDS011;63443;48.366;10.876;2022-11-15T22:45:53;18.40;;;15.53;;
49031;SDS011;63443;48.366;10.876;2022-11-15T22:48:19;14.88;;;11.98;;
49031;SDS011;63443;48.366;10.876;2022-11-15T22:50:50;11.27;;;10.23;;
49031;SDS011;63443;48.366;10.876;2022-11-15T22:53:16;11.95;;;10.80;;
49031;SDS011;63443;48.366;10.876;2022-11-15T22:55:42;13.63;;;12.18;;
49031;SDS011;63443;48.366;10.876;2022-11-15T22:58:08;12.33;;;11.03;;
49031;SDS011;63443;48.366;10.876;2022-11-15T23:00:34;26.87;;;24.07;;
49031;SDS011;63443;48.366;10.876;2022-11-15T23:03:00;19.00;;;17.00;;
49031;SDS011;63443;48.366;10.876;2022-11-15T23:05:26;17.77;;;15.10;;
49031;SDS011;63443;48.366;10.876;2022-11-15T23:07:51;13.00;;;11.73;;
49031;SDS011;63443;48.366;10.876;2022-11-15T23:10:17;13.02;;;11.73;;
49031;SDS011;63443;48.366;10.876;2022-11-15T23:13:02;11.63;;;10.50;;
49031;SDS011;63443;48.366;10.876;2022-11-15T23:15:41;12.17;;;10.87;;
49031;SDS011;63443;48.366;10.876;2022-11-15T23:18:38;11.52;;;10.38;;
49031;SDS011;63443;48.366;10.876;2022-11-15T23:21:08;11.52;;;10.43;;
49031;SDS011;63443;48.366;10.876;2022-11-15T23:23:35;11.07;;;9.95;;
49031;SDS011;63443;48.366;10.876;2022-11-15T23:26:00;10.37;;;9.37;;
49031;SDS011;63443;48.366;10.876;2022-11-15T23:28:26;10.90;;;9.90;;
49031;SDS011;63443;48.366;10.876;2022-11-15T23:30:51;11.77;;;10.57;;
49031;SDS011;63443;48.366;10.876;2022-11-15T23:33:36;13.45;;;10.90;;
49031;SDS011;63443;48.366;10.876;2022-11-15T23:36:21;11.02;;;9.98;;
49031;SDS011;63443;48.366;10.876;2022-11-15T23:38:46;14.15;;;10.50;;
49031;SDS011;63443;48.366;10.876;2022-11-15T23:41:12;11.02;;;9.90;;
49031;SDS011;63443;48.366;10.876;2022-11-15T23:43:38;10.77;;;9.53;;
49031;SDS011;63443;48.366;10.876;2022-11-15T23:46:03;11.43;;;10.43;;
49031;SDS011;63443;48.366;10.876;2022-11-15T23:48:29;11.70;;;9.93;;
49031;SDS011;63443;48.366;10.876;2022-11-15T23:50:54;11.37;;;10.27;;
49031;SDS011;63443;48.366;10.876;2022-11-15T23:53:20;11.47;;;10.37;;
49031;SDS011;63443;48.366;10.876;2022-11-15T23:55:53;10.10;;;9.20;;
49031;SDS011;63443;48.366;10.876;2022-11-15T23:58:24;10.70;;;9.60;;
